Time;durP1;ratioP1;P1;durP2;ratioP2;P2;SDS_P1;SDS_P2;PMS_P1;PMS_P2;Temp;Humidity;BMP_temperature;BMP_pressure;BME280_temperature;BME280_humidity;BME280_pressure;Samples;Min_cycle;Max_cycle;Signal;HPM_P1;HPM_P2
2021/06/23 00:01:25;;;;;;;;;;;18.50;99.90;;;;;;5046022;28;19932;-75
2021/06/23 00:03:52;;;;;;;;;;;18.60;99.90;;;;;;5047260;28;19940;-74
2021/06/23 00:06:19;;;;;;;;;;;18.60;99.90;;;;;;5063318;28;20297;-75
2021/06/23 00:08:46;;;;;;;;;;;18.50;99.90;;;;;;5049600;28;20046;-75
2021/06/23 00:11:12;;;;;;;;;;;18.50;99.90;;;;;;5046224;28;20027;-74
2021/06/23 00:13:40;;;;;;;;;;;18.60;99.90;;;;;;5048341;28;19964;-75
2021/06/23 00:16:08;;;;;;;;;;;18.70;99.90;;;;;;5078109;28;19964;-75
2021/06/23 00:18:35;;;;;;;;;;;18.60;99.90;;;;;;5048781;28;19992;-75
2021/06/23 00:21:01;;;;;;;;;;;18.60;99.90;;;;;;5081558;28;20747;-76
2021/06/23 00:23:28;;;;;;;;;;;18.60;99.90;;;;;;5042076;28;19933;-74
2021/06/23 00:25:55;;;;;;;;;;;18.50;99.90;;;;;;5043646;28;19971;-75
2021/06/23 00:28:22;;;;;;;;;;;18.50;99.90;;;;;;5046584;28;20419;-74
2021/06/23 00:30:49;;;;;;;;;;;18.50;99.90;;;;;;5049577;28;19925;-76
2021/06/23 00:33:18;;;;;;;;;;;18.30;99.90;;;;;;5048442;28;19961;-74
2021/06/23 00:35:46;;;;;;;;;;;18.20;99.90;;;;;;5045945;28;20023;-73
2021/06/23 00:38:13;;;;;;;;;;;18.30;99.90;;;;;;5045292;28;19956;-74
2021/06/23 00:40:40;;;;;;;;;;;18.30;99.90;;;;;;5044142;28;20406;-73
2021/06/23 00:43:07;;;;;;;;;;;18.30;99.90;;;;;;5044797;28;19956;-74
2021/06/23 00:45:34;;;;;;;;;;;18.40;99.90;;;;;;5042247;28;19978;-74
2021/06/23 00:48:01;;;;;;;;;;;18.40;99.90;;;;;;5043800;28;20026;-73
2021/06/23 00:50:27;;;;;;;;;;;18.20;99.90;;;;;;5037246;28;19998;-73
2021/06/23 00:52:55;;;;;;;;;;;18.30;99.90;;;;;;5078431;28;20307;-73
2021/06/23 00:55:23;;;;;;;;;;;18.30;99.90;;;;;;5050006;28;19929;-74
2021/06/23 00:57:51;;;;;;;;;;;18.50;99.90;;;;;;5052705;28;19972;-74
2021/06/23 01:00:22;;;;;;;;;;;18.30;99.90;;;;;;5049068;28;20011;-73
2021/06/23 01:02:49;;;;;;;;;;;18.40;99.90;;;;;;5050702;28;19931;-75
2021/06/23 01:05:16;;;;;;;;;;;18.30;99.90;;;;;;5050804;28;19990;-74
2021/06/23 01:07:44;;;;;;;;;;;18.40;99.90;;;;;;5047943;28;19925;-71
2021/06/23 01:10:11;;;;;;;;;;;18.40;99.90;;;;;;5052723;28;20019;-74
2021/06/23 01:12:53;;;;;;;;;;;18.40;99.90;;;;;;5051034;28;19975;-75
2021/06/23 01:15:20;;;;;;;;;;;18.30;99.90;;;;;;5050058;28;19931;-75
2021/06/23 01:17:49;;;;;;;;;;;18.30;99.90;;;;;;5050657;28;19968;-75
2021/06/23 01:20:16;;;;;;;;;;;18.30;99.90;;;;;;5048272;28;20020;-73
2021/06/23 01:22:43;;;;;;;;;;;18.30;99.90;;;;;;5049044;28;19984;-75
2021/06/23 01:25:12;;;;;;;;;;;18.30;99.90;;;;;;5064793;28;19971;-75
2021/06/23 01:27:40;;;;;;;;;;;18.40;99.90;;;;;;5049239;28;19929;-75
2021/06/23 01:30:07;;;;;;;;;;;18.30;99.90;;;;;;5050549;28;20519;-76
2021/06/23 01:32:34;;;;;;;;;;;18.30;99.90;;;;;;5053136;28;19929;-75
2021/06/23 01:35:01;;;;;;;;;;;18.20;99.90;;;;;;5047355;28;19968;-75
2021/06/23 01:37:28;;;;;;;;;;;18.30;99.90;;;;;;5045657;28;19925;-75
2021/06/23 01:39:55;;;;;;;;;;;18.40;99.90;;;;;;5048599;28;20019;-75
2021/06/23 01:42:22;;;;;;;;;;;18.20;99.90;;;;;;5047255;28;19994;-75
2021/06/23 01:44:49;;;;;;;;;;;18.40;99.90;;;;;;5064831;28;19956;-75
2021/06/23 01:47:15;;;;;;;;;;;18.40;99.90;;;;;;5048521;28;20020;-75
2021/06/23 01:49:42;;;;;;;;;;;18.30;99.90;;;;;;5047032;28;19968;-74
2021/06/23 01:52:09;;;;;;;;;;;18.20;99.90;;;;;;5047964;28;19967;-75
2021/06/23 01:54:39;;;;;;;;;;;18.30;99.90;;;;;;5049799;28;19978;-75
2021/06/23 01:57:07;;;;;;;;;;;18.10;99.90;;;;;;5071185;28;19925;-75
2021/06/23 01:59:34;;;;;;;;;;;17.90;99.90;;;;;;5051487;28;20012;-69
2021/06/23 02:02:05;;;;;;;;;;;17.90;99.90;;;;;;5048056;28;20016;-67
2021/06/23 02:04:31;;;;;;;;;;;18.00;99.90;;;;;;5048992;28;20272;-67
2021/06/23 02:07:18;;;;;;;;;;;17.90;99.90;;;;;;5043413;28;19968;-74
2021/06/23 02:09:48;;;;;;;;;;;18.00;99.90;;;;;;5022975;28;19960;-75
2021/06/23 02:12:21;;;;;;;;;;;18.00;99.90;;;;;;5042513;28;19925;-73
2021/06/23 02:14:49;;;;;;;;;;;18.00;99.90;;;;;;5049020;28;19978;-75
2021/06/23 02:17:16;;;;;;;;;;;17.90;99.90;;;;;;5047597;28;19956;-75
2021/06/23 02:19:47;;;;;;;;;;;17.90;99.90;;;;;;5047571;28;19932;-75
2021/06/23 02:22:17;;;;;;;;;;;17.80;99.90;;;;;;5048117;28;19951;-75
2021/06/23 02:24:45;;;;;;;;;;;17.70;99.90;;;;;;5047674;28;20059;-75
2021/06/23 02:27:13;;;;;;;;;;;17.90;99.90;;;;;;5062287;28;19979;-75
2021/06/23 02:29:40;;;;;;;;;;;17.90;99.90;;;;;;5046654;28;20369;-75
2021/06/23 02:32:11;;;;;;;;;;;17.90;99.90;;;;;;5050211;28;20020;-75
2021/06/23 02:34:39;;;;;;;;;;;17.90;99.90;;;;;;5046009;28;19932;-75
2021/06/23 02:37:05;;;;;;;;;;;17.80;99.90;;;;;;5048563;28;19925;-75
2021/06/23 02:39:32;;;;;;;;;;;17.70;99.90;;;;;;5047746;28;20310;-74
2021/06/23 02:41:59;;;;;;;;;;;17.80;99.90;;;;;;5048494;28;19956;-75
2021/06/23 02:44:26;;;;;;;;;;;17.60;99.90;;;;;;5043359;28;20403;-74
2021/06/23 02:46:53;;;;;;;;;;;17.60;99.90;;;;;;5051155;28;19964;-67
2021/06/23 02:49:20;;;;;;;;;;;17.70;99.90;;;;;;5041849;28;19924;-67
2021/06/23 02:51:47;;;;;;;;;;;17.70;99.90;;;;;;5046076;28;20024;-67
2021/06/23 02:54:14;;;;;;;;;;;17.60;99.90;;;;;;5048911;28;20433;-67
2021/06/23 02:56:41;;;;;;;;;;;17.70;99.90;;;;;;5046137;28;20336;-67
2021/06/23 02:59:10;;;;;;;;;;;17.60;99.90;;;;;;5045238;28;19968;-66
2021/06/23 03:01:36;;;;;;;;;;;17.70;99.90;;;;;;5061205;28;20362;-67
2021/06/23 03:04:03;;;;;;;;;;;17.70;99.90;;;;;;5047987;28;19960;-68
2021/06/23 03:06:34;;;;;;;;;;;17.60;99.90;;;;;;5047939;28;19928;-67
2021/06/23 03:09:00;;;;;;;;;;;17.80;99.90;;;;;;5048926;28;20019;-67
2021/06/23 03:11:37;;;;;;;;;;;17.90;99.90;;;;;;5046475;28;20331;-67
2021/06/23 03:14:05;;;;;;;;;;;17.90;99.90;;;;;;5045894;28;20350;-68
2021/06/23 03:16:31;;;;;;;;;;;17.70;99.90;;;;;;5043334;28;19968;-67
2021/06/23 03:18:58;;;;;;;;;;;17.60;99.90;;;;;;5042875;28;19925;-68
2021/06/23 03:21:26;;;;;;;;;;;17.60;99.90;;;;;;5048060;28;19956;-67
2021/06/23 03:23:53;;;;;;;;;;;17.60;99.90;;;;;;5045810;28;20019;-67
2021/06/23 03:26:20;;;;;;;;;;;17.70;99.90;;;;;;5046399;28;20355;-67
2021/06/23 03:28:47;;;;;;;;;;;17.80;99.90;;;;;;5047681;28;20078;-68
2021/06/23 03:31:13;;;;;;;;;;;17.80;99.90;;;;;;5040144;28;20063;-68
2021/06/23 03:33:40;;;;;;;;;;;17.80;99.90;;;;;;5044460;28;19939;-68
2021/06/23 03:36:07;;;;;;;;;;;17.70;99.90;;;;;;5047537;28;19924;-68
2021/06/23 03:38:34;;;;;;;;;;;17.80;99.90;;;;;;5046522;28;19986;-68
2021/06/23 03:41:00;;;;;;;;;;;17.90;99.90;;;;;;5047606;28;19955;-67
2021/06/23 03:43:27;;;;;;;;;;;18.10;99.90;;;;;;5044443;28;19967;-67
2021/06/23 03:45:54;;;;;;;;;;;18.00;99.90;;;;;;5046316;28;19964;-68
2021/06/23 03:48:21;;;;;;;;;;;17.90;99.90;;;;;;5043080;28;20253;-67
2021/06/23 03:50:48;;;;;;;;;;;17.80;99.90;;;;;;5044903;28;20309;-68
2021/06/23 03:53:15;;;;;;;;;;;18.00;99.90;;;;;;5048232;28;19968;-69
2021/06/23 03:55:42;;;;;;;;;;;17.90;99.90;;;;;;5046611;28;20072;-67
2021/06/23 03:58:09;;;;;;;;;;;17.80;99.90;;;;;;5044344;28;19929;-67
2021/06/23 04:00:36;;;;;;;;;;;17.80;99.90;;;;;;5049821;28;19964;-67
2021/06/23 04:03:03;;;;;;;;;;;17.90;99.90;;;;;;5041748;28;20020;-68
2021/06/23 04:05:29;;;;;;;;;;;18.00;99.90;;;;;;5045209;28;20074;-67
2021/06/23 04:07:56;;;;;;;;;;;17.90;99.90;;;;;;5047273;28;20343;-68
2021/06/23 04:10:23;;;;;;;;;;;17.90;99.90;;;;;;5061106;28;19975;-67
2021/06/23 04:12:50;;;;;;;;;;;17.90;99.90;;;;;;5044389;28;19932;-68
2021/06/23 04:15:17;;;;;;;;;;;18.00;99.90;;;;;;5047467;28;19931;-67
2021/06/23 04:17:45;;;;;;;;;;;17.80;99.90;;;;;;5044019;28;19959;-67
2021/06/23 04:20:12;;;;;;;;;;;17.90;99.90;;;;;;5043725;28;19925;-68
2021/06/23 04:22:38;;;;;;;;;;;17.80;99.90;;;;;;5063294;28;19968;-67
2021/06/23 04:25:06;;;;;;;;;;;17.80;99.90;;;;;;5044635;28;20410;-66
2021/06/23 04:27:33;;;;;;;;;;;17.80;99.90;;;;;;5044975;28;19956;-66
2021/06/23 04:30:00;;;;;;;;;;;17.70;99.90;;;;;;5047786;28;19960;-67
2021/06/23 04:32:27;;;;;;;;;;;17.70;99.90;;;;;;5051489;28;20418;-66
2021/06/23 04:34:54;;;;;;;;;;;17.80;99.90;;;;;;5048624;28;19967;-67
2021/06/23 04:37:20;;;;;;;;;;;17.60;99.90;;;;;;5051122;28;19979;-67
2021/06/23 04:39:49;;;;;;;;;;;17.60;99.90;;;;;;5051402;28;19933;-68
2021/06/23 04:42:16;;;;;;;;;;;17.70;99.90;;;;;;5049973;28;20114;-67
2021/06/23 04:44:43;;;;;;;;;;;17.70;99.90;;;;;;5051318;28;20950;-66
2021/06/23 04:47:10;;;;;;;;;;;17.70;99.90;;;;;;5052653;28;19929;-67
2021/06/23 04:49:37;;;;;;;;;;;17.60;99.90;;;;;;5058216;28;19931;-68
2021/06/23 04:52:03;;;;;;;;;;;17.70;99.90;;;;;;5079567;28;19964;-67
2021/06/23 04:54:30;;;;;;;;;;;17.50;99.90;;;;;;5050661;28;19979;-68
2021/06/23 04:56:57;;;;;;;;;;;17.60;99.90;;;;;;5048886;28;20347;-68
2021/06/23 04:59:24;;;;;;;;;;;17.60;99.90;;;;;;5049246;28;19955;-68
2021/06/23 05:01:50;;;;;;;;;;;17.60;99.90;;;;;;5081596;28;19964;-76
2021/06/23 05:04:17;;;;;;;;;;;17.50;99.90;;;;;;5046902;28;19933;-75
2021/06/23 05:06:46;;;;;;;;;;;17.20;99.90;;;;;;5047669;28;20013;-76
2021/06/23 05:09:13;;;;;;;;;;;17.30;99.90;;;;;;5048771;28;20008;-68
2021/06/23 05:11:40;;;;;;;;;;;17.20;99.90;;;;;;5050725;28;19975;-68
2021/06/23 05:14:08;;;;;;;;;;;17.10;99.90;;;;;;5050750;28;19987;-68
2021/06/23 05:16:35;;;;;;;;;;;17.10;99.90;;;;;;5049191;28;19925;-68
2021/06/23 05:19:02;;;;;;;;;;;17.20;99.90;;;;;;5049342;28;20374;-67
2021/06/23 05:21:33;;;;;;;;;;;17.20;99.90;;;;;;5043977;28;20051;-67
2021/06/23 05:24:01;;;;;;;;;;;17.30;99.90;;;;;;5047853;28;19978;-68
2021/06/23 05:26:28;;;;;;;;;;;17.50;99.90;;;;;;5049072;28;19960;-67
2021/06/23 05:28:55;;;;;;;;;;;17.60;99.90;;;;;;5048691;28;20035;-68
2021/06/23 05:31:22;;;;;;;;;;;17.40;99.90;;;;;;5048389;28;19925;-68
2021/06/23 05:33:48;;;;;;;;;;;17.30;99.90;;;;;;5048834;28;20253;-68
2021/06/23 05:36:15;;;;;;;;;;;17.40;99.90;;;;;;5046574;28;20015;-69
2021/06/23 05:38:42;;;;;;;;;;;17.40;99.90;;;;;;5042174;28;19970;-67
2021/06/23 05:41:08;;;;;;;;;;;17.40;99.90;;;;;;5048697;28;19937;-68
2021/06/23 05:43:35;;;;;;;;;;;17.40;99.90;;;;;;5045632;28;19928;-68
2021/06/23 05:46:02;;;;;;;;;;;17.50;99.90;;;;;;5047844;28;19984;-68
2021/06/23 05:48:29;;;;;;;;;;;17.70;99.90;;;;;;5045220;28;19925;-68
2021/06/23 05:50:55;;;;;;;;;;;17.70;99.90;;;;;;5047361;28;20010;-68
2021/06/23 05:53:22;;;;;;;;;;;17.60;99.90;;;;;;5046935;28;20012;-69
2021/06/23 05:55:49;;;;;;;;;;;17.70;99.90;;;;;;5049185;28;20395;-68
2021/06/23 05:58:16;;;;;;;;;;;17.50;99.90;;;;;;5032617;28;20028;-68
2021/06/23 06:00:43;;;;;;;;;;;17.40;99.90;;;;;;5035407;28;20019;-67
2021/06/23 06:03:09;;;;;;;;;;;17.40;99.90;;;;;;5034282;28;21088;-67
2021/06/23 06:05:36;;;;;;;;;;;17.40;99.90;;;;;;5034415;28;19948;-67
2021/06/23 06:08:03;;;;;;;;;;;17.30;99.90;;;;;;5030368;28;19978;-67
2021/06/23 06:10:30;;;;;;;;;;;17.60;99.90;;;;;;5033678;28;19932;-68
2021/06/23 06:13:00;;;;;;;;;;;17.50;99.90;;;;;;5033756;28;20437;-68
2021/06/23 06:15:27;;;;;;;;;;;17.30;99.90;;;;;;5034109;28;20627;-68
2021/06/23 06:17:58;;;;;;;;;;;17.30;99.90;;;;;;5034523;28;19933;-69
2021/06/23 06:20:25;;;;;;;;;;;17.50;99.90;;;;;;5035400;28;20292;-67
2021/06/23 06:22:52;;;;;;;;;;;17.70;99.90;;;;;;5033109;28;19944;-69
2021/06/23 06:25:21;;;;;;;;;;;17.60;99.90;;;;;;5031668;28;19933;-68
2021/06/23 06:27:48;;;;;;;;;;;17.60;99.90;;;;;;5032577;28;20256;-69
2021/06/23 06:30:14;;;;;;;;;;;17.50;99.90;;;;;;5034484;28;19939;-69
2021/06/23 06:32:41;;;;;;;;;;;17.50;99.90;;;;;;5034266;28;20023;-68
2021/06/23 06:35:08;;;;;;;;;;;17.60;99.90;;;;;;5032880;28;19929;-68
2021/06/23 06:37:35;;;;;;;;;;;17.90;99.90;;;;;;5037234;28;20394;-68
2021/06/23 06:40:02;;;;;;;;;;;17.90;99.90;;;;;;5032405;28;19983;-68
2021/06/23 06:42:29;;;;;;;;;;;18.10;99.90;;;;;;5032966;28;20012;-67
2021/06/23 06:44:56;;;;;;;;;;;18.20;99.90;;;;;;5033358;28;19948;-68
2021/06/23 06:47:23;;;;;;;;;;;18.20;99.90;;;;;;5032803;28;20608;-67
2021/06/23 06:49:49;;;;;;;;;;;18.10;99.90;;;;;;5031759;28;21188;-68
2021/06/23 06:52:16;;;;;;;;;;;18.10;99.90;;;;;;5033759;28;19972;-67
2021/06/23 06:54:43;;;;;;;;;;;18.10;99.90;;;;;;5033121;28;20371;-68
2021/06/23 06:57:10;;;;;;;;;;;17.90;99.90;;;;;;5031620;28;21632;-67
2021/06/23 06:59:37;;;;;;;;;;;18.00;99.90;;;;;;5032025;28;20725;-67
2021/06/23 07:02:03;;;;;;;;;;;18.10;99.90;;;;;;5034719;28;20427;-67
2021/06/23 07:04:30;;;;;;;;;;;18.30;99.90;;;;;;5034406;28;19960;-67
2021/06/23 07:06:57;;;;;;;;;;;18.40;99.90;;;;;;5034320;28;20307;-66
2021/06/23 07:09:24;;;;;;;;;;;18.40;99.90;;;;;;5050207;28;20053;-68
2021/06/23 07:11:51;;;;;;;;;;;18.20;99.90;;;;;;5032297;28;19960;-67
2021/06/23 07:14:21;;;;;;;;;;;18.50;99.90;;;;;;5049830;28;19987;-66
2021/06/23 07:16:48;;;;;;;;;;;18.30;99.90;;;;;;5032563;28;19936;-68
2021/06/23 07:19:17;;;;;;;;;;;18.40;99.90;;;;;;5010900;28;20216;-68
2021/06/23 07:21:45;;;;;;;;;;;18.40;99.90;;;;;;5012330;28;19979;-72
2021/06/23 07:24:16;;;;;;;;;;;18.50;99.90;;;;;;5012879;28;20064;-73
2021/06/23 07:26:44;;;;;;;;;;;18.50;99.90;;;;;;5009742;28;20455;-71
2021/06/23 07:29:10;;;;;;;;;;;19.00;99.90;;;;;;5010952;28;19964;-73
2021/06/23 07:36:39;;;;;;;;;;;19.80;99.90;;;;;;5008962;28;20032;-72
2021/06/23 07:39:08;;;;;;;;;;;20.20;99.90;;;;;;5009172;28;19968;-74
2021/06/23 07:41:35;;;;;;;;;;;20.20;99.90;;;;;;5009920;28;20015;-72
2021/06/23 07:44:02;;;;;;;;;;;19.90;99.90;;;;;;5007668;28;20444;-73
2021/06/23 07:46:37;;;;;;;;;;;20.20;99.90;;;;;;5010793;28;19983;-73
2021/06/23 07:49:08;;;;;;;;;;;20.20;99.90;;;;;;5009883;28;20897;-73
2021/06/23 08:13:19;;;;;;;;;;;20.00;99.90;;;;;;4952238;28;20480;-72
2021/06/23 08:15:47;;;;;;;;;;;20.10;99.90;;;;;;4999114;28;19976;-71
2021/06/23 08:18:15;;;;;;;;;;;20.00;99.90;;;;;;5012139;28;20372;-72
2021/06/23 08:20:42;;;;;;;;;;;20.20;99.90;;;;;;5013696;28;19968;-73
2021/06/23 08:23:09;;;;;;;;;;;20.20;99.90;;;;;;5014704;28;20466;-73
2021/06/23 08:25:35;;;;;;;;;;;20.40;99.90;;;;;;5013087;28;19980;-73
2021/06/23 08:28:02;;;;;;;;;;;20.60;99.90;;;;;;5011364;28;19933;-73
2021/06/23 08:30:29;;;;;;;;;;;20.90;99.90;;;;;;5010386;28;20123;-73
2021/06/23 08:32:58;;;;;;;;;;;20.90;99.90;;;;;;5011639;28;20031;-72
2021/06/23 08:35:24;;;;;;;;;;;20.40;99.90;;;;;;5013121;28;19973;-73
2021/06/23 08:37:52;;;;;;;;;;;20.40;99.90;;;;;;5011711;28;19949;-73
2021/06/23 08:40:20;;;;;;;;;;;20.60;99.90;;;;;;5011789;28;19964;-79
2021/06/23 08:42:47;;;;;;;;;;;20.70;99.90;;;;;;5028685;28;20087;-74
2021/06/23 08:45:14;;;;;;;;;;;20.70;99.90;;;;;;5012447;28;19968;-73
2021/06/23 08:47:42;;;;;;;;;;;20.80;99.90;;;;;;5011859;28;20012;-72
2021/06/23 08:50:10;;;;;;;;;;;20.80;99.90;;;;;;5010193;28;20114;-73
2021/06/23 08:52:37;;;;;;;;;;;21.00;99.90;;;;;;5014306;28;19941;-75
2021/06/23 08:55:27;;;;;;;;;;;21.00;99.90;;;;;;5011947;28;21336;-72
2021/06/23 08:57:55;;;;;;;;;;;21.10;99.90;;;;;;5012078;28;20469;-73
2021/06/23 09:00:24;;;;;;;;;;;21.30;99.90;;;;;;5012010;28;20028;-74
2021/06/23 09:02:51;;;;;;;;;;;21.00;99.90;;;;;;5020686;28;19929;-73
2021/06/23 09:05:18;;;;;;;;;;;21.10;99.90;;;;;;5024328;28;20020;-79
2021/06/23 09:07:48;;;;;;;;;;;21.20;99.90;;;;;;5025250;28;20023;-72
2021/06/23 09:10:14;;;;;;;;;;;21.30;99.90;;;;;;5025155;28;20317;-72
2021/06/23 09:12:41;;;;;;;;;;;21.20;99.90;;;;;;5022295;28;20056;-71
2021/06/23 09:15:08;;;;;;;;;;;21.50;99.90;;;;;;5019916;28;20064;-72
2021/06/23 09:17:34;;;;;;;;;;;21.50;99.90;;;;;;5024041;28;20060;-72
2021/06/23 09:20:02;;;;;;;;;;;21.60;99.90;;;;;;5023903;28;19994;-72
2021/06/23 09:22:42;;;;;;;;;;;21.60;99.90;;;;;;5022456;28;20636;-73
2021/06/23 09:25:11;;;;;;;;;;;21.50;99.90;;;;;;5021259;28;20028;-72
2021/06/23 09:27:45;;;;;;;;;;;21.50;99.90;;;;;;5025363;28;19939;-74
2021/06/23 09:30:32;;;;;;;;;;;21.30;99.90;;;;;;5023411;28;19935;-72
2021/06/23 09:33:10;;;;;;;;;;;21.40;99.90;;;;;;5022310;28;20036;-72
2021/06/23 09:35:38;;;;;;;;;;;21.30;99.90;;;;;;5023417;28;19964;-71
2021/06/23 09:38:31;;;;;;;;;;;21.30;99.90;;;;;;5022799;28;19933;-66
2021/06/23 09:41:01;;;;;;;;;;;21.60;99.90;;;;;;5024388;28;19961;-69
2021/06/23 09:43:39;;;;;;;;;;;21.80;99.90;;;;;;5026419;28;19933;-68
2021/06/23 09:46:16;;;;;;;;;;;21.80;99.90;;;;;;5017014;28;19933;-65
2021/06/23 09:48:43;;;;;;;;;;;21.80;99.90;;;;;;5024030;28;19964;-65
2021/06/23 09:51:11;;;;;;;;;;;21.90;99.90;;;;;;5026558;28;19931;-66
2021/06/23 09:53:38;;;;;;;;;;;22.10;99.90;;;;;;5027875;28;20020;-66
2021/06/23 09:56:22;;;;;;;;;;;22.20;99.90;;;;;;5022691;28;20433;-67
2021/06/23 09:58:52;;;;;;;;;;;22.20;99.90;;;;;;5022471;28;19925;-66
2021/06/23 10:01:18;;;;;;;;;;;22.30;99.90;;;;;;5028291;28;19979;-66
2021/06/23 10:03:57;;;;;;;;;;;22.50;99.90;;;;;;5026918;28;19948;-66
2021/06/23 10:06:34;;;;;;;;;;;22.20;99.90;;;;;;5033035;28;19968;-65
2021/06/23 10:09:16;;;;;;;;;;;22.20;99.90;;;;;;5024508;28;20021;-65
2021/06/23 10:11:43;;;;;;;;;;;22.20;99.90;;;;;;5030065;28;19983;-65
2021/06/23 10:14:09;;;;;;;;;;;22.20;99.90;;;;;;5014820;28;19972;-65
2021/06/23 10:16:36;;;;;;;;;;;22.10;99.90;;;;;;5027551;28;19971;-65
2021/06/23 10:19:04;;;;;;;;;;;22.10;99.90;;;;;;5025436;28;19955;-65
2021/06/23 10:21:31;;;;;;;;;;;22.10;99.90;;;;;;5031502;28;20344;-65
2021/06/23 10:23:58;;;;;;;;;;;22.10;99.90;;;;;;5027444;28;19968;-65
2021/06/23 10:26:28;;;;;;;;;;;22.10;99.90;;;;;;5032702;28;19940;-66
2021/06/23 10:28:56;;;;;;;;;;;22.20;99.90;;;;;;5029949;28;19980;-70
2021/06/23 10:31:24;;;;;;;;;;;22.20;99.90;;;;;;5026842;28;20588;-71
2021/06/23 10:33:51;;;;;;;;;;;22.40;99.90;;;;;;5026390;28;20051;-70
2021/06/23 10:36:19;;;;;;;;;;;22.60;99.90;;;;;;5029753;28;19964;-71
2021/06/23 10:38:48;;;;;;;;;;;22.80;99.90;;;;;;5028602;28;19932;-71
2021/06/23 10:41:15;;;;;;;;;;;22.80;99.90;;;;;;5023902;28;19968;-71
2021/06/23 10:43:43;;;;;;;;;;;22.50;99.90;;;;;;5029292;28;19983;-71
2021/06/23 10:46:10;;;;;;;;;;;22.50;99.90;;;;;;5024031;28;20724;-71
2021/06/23 10:48:53;;;;;;;;;;;22.80;99.90;;;;;;5025376;28;19925;-69
2021/06/23 10:51:24;;;;;;;;;;;23.00;99.90;;;;;;5017493;28;19976;-71
2021/06/23 10:53:51;;;;;;;;;;;23.40;99.90;;;;;;5027034;28;20020;-71
2021/06/23 10:56:36;;;;;;;;;;;23.30;99.90;;;;;;5022387;28;20032;-71
2021/06/23 10:59:22;;;;;;;;;;;23.10;99.90;;;;;;5021886;28;20012;-71
2021/06/23 11:02:10;;;;;;;;;;;23.10;99.90;;;;;;5026591;28;19925;-71
2021/06/23 11:04:57;;;;;;;;;;;23.00;99.90;;;;;;5026348;28;19926;-71
2021/06/23 11:07:34;;;;;;;;;;;23.10;99.90;;;;;;5011425;28;20011;-71
2021/06/23 11:10:16;;;;;;;;;;;23.40;99.90;;;;;;5028463;28;19956;-71
2021/06/23 11:12:43;;;;;;;;;;;23.50;99.90;;;;;;5025408;28;19972;-71
2021/06/23 11:15:13;;;;;;;;;;;23.50;99.90;;;;;;5027319;28;19943;-71
2021/06/23 11:17:40;;;;;;;;;;;23.60;99.90;;;;;;5030436;28;19976;-71
2021/06/23 11:20:19;;;;;;;;;;;23.50;99.90;;;;;;5024088;28;20020;-71
2021/06/23 11:22:55;;;;;;;;;;;23.80;99.90;;;;;;5018002;28;20052;-70
2021/06/23 11:25:28;;;;;;;;;;;23.90;99.90;;;;;;5031321;28;19984;-71
2021/06/23 11:28:21;;;;;;;;;;;23.80;99.90;;;;;;5023029;28;19969;-71
2021/06/23 11:30:50;;;;;;;;;;;23.70;99.90;;;;;;5019935;28;19976;-71
2021/06/23 11:33:26;;;;;;;;;;;23.10;99.90;;;;;;5026478;28;19929;-72
2021/06/23 11:35:57;;;;;;;;;;;23.00;99.90;;;;;;5025977;28;19979;-71
2021/06/23 11:38:25;;;;;;;;;;;22.90;99.90;;;;;;5025656;28;19929;-70
2021/06/23 11:40:52;;;;;;;;;;;23.20;99.90;;;;;;5029843;28;19976;-70
2021/06/23 11:43:19;;;;;;;;;;;23.40;99.90;;;;;;5019365;28;19926;-71
2021/06/23 11:45:45;;;;;;;;;;;23.70;99.90;;;;;;5020996;28;20008;-71
2021/06/23 11:48:13;;;;;;;;;;;24.10;99.90;;;;;;5022904;28;20004;-71
2021/06/23 11:50:40;;;;;;;;;;;24.30;99.90;;;;;;5026694;28;19972;-71
2021/06/23 11:53:09;;;;;;;;;;;24.20;99.90;;;;;;5026140;28;19972;-70
2021/06/23 11:55:36;;;;;;;;;;;24.30;99.90;;;;;;5029642;28;20008;-71
2021/06/23 11:58:02;;;;;;;;;;;24.10;99.90;;;;;;5020650;28;20021;-70
2021/06/23 12:00:30;;;;;;;;;;;23.70;99.90;;;;;;5017580;28;19963;-70
2021/06/23 12:02:58;;;;;;;;;;;24.50;99.90;;;;;;5029427;28;19991;-70
2021/06/23 12:05:25;;;;;;;;;;;24.70;99.90;;;;;;5026506;28;20025;-70
2021/06/23 12:07:53;;;;;;;;;;;24.40;99.90;;;;;;5021759;28;20004;-71
2021/06/23 12:10:21;;;;;;;;;;;24.20;99.90;;;;;;5028670;28;19968;-70
2021/06/23 12:12:48;;;;;;;;;;;23.90;99.90;;;;;;5022233;28;19925;-71
2021/06/23 12:15:17;;;;;;;;;;;23.90;99.90;;;;;;5025730;28;19936;-71
2021/06/23 12:17:44;;;;;;;;;;;24.00;99.90;;;;;;5028287;28;20300;-70
2021/06/23 12:20:11;;;;;;;;;;;24.20;99.90;;;;;;5021470;28;19968;-70
2021/06/23 12:22:39;;;;;;;;;;;25.50;99.90;;;;;;5016009;28;19933;-69
2021/06/23 12:25:07;;;;;;;;;;;27.30;96.80;;;;;;5026588;28;19976;-71
2021/06/23 12:27:34;;;;;;;;;;;29.70;83.30;;;;;;5025365;28;19956;-70
2021/06/23 12:30:01;;;;;;;;;;;33.50;63.90;;;;;;5026565;28;19925;-71
2021/06/23 12:32:28;;;;;;;;;;;37.30;48.50;;;;;;5026815;28;19961;-72
2021/06/23 12:34:54;;;;;;;;;;;38.20;43.80;;;;;;5022464;28;19995;-70
2021/06/23 12:37:21;;;;;;;;;;;39.40;40.60;;;;;;5013844;28;19975;-71
2021/06/23 12:39:48;;;;;;;;;;;37.80;41.50;;;;;;5026304;28;19957;-71
2021/06/23 12:42:14;;;;;;;;;;;36.60;44.40;;;;;;5025700;28;20028;-72
2021/06/23 12:44:42;;;;;;;;;;;37.00;42.80;;;;;;5028323;28;20008;-72
2021/06/23 12:47:09;;;;;;;;;;;37.20;43.20;;;;;;5024116;28;20004;-72
2021/06/23 12:49:35;;;;;;;;;;;36.10;43.50;;;;;;5026568;28;20339;-70
2021/06/23 12:52:02;;;;;;;;;;;33.90;46.20;;;;;;5032348;28;20008;-71
2021/06/23 12:54:29;;;;;;;;;;;29.10;55.50;;;;;;5028770;28;20016;-71
2021/06/23 12:56:56;;;;;;;;;;;29.70;58.60;;;;;;5023256;28;20392;-71
2021/06/23 12:59:24;;;;;;;;;;;31.00;57.80;;;;;;5020401;28;19975;-70
2021/06/23 13:01:51;;;;;;;;;;;32.50;53.90;;;;;;5043381;28;20020;-71
2021/06/23 13:04:17;;;;;;;;;;;31.80;54.20;;;;;;5028630;28;19931;-71
2021/06/23 13:06:44;;;;;;;;;;;30.90;55.70;;;;;;5031478;28;19972;-71
2021/06/23 13:09:11;;;;;;;;;;;29.00;58.60;;;;;;5027930;28;19929;-70
2021/06/23 13:11:37;;;;;;;;;;;28.20;63.30;;;;;;5027128;28;20287;-65
2021/06/23 13:14:04;;;;;;;;;;;27.30;69.80;;;;;;5022099;28;20363;-65
2021/06/23 13:16:31;;;;;;;;;;;26.70;75.30;;;;;;5031661;28;20011;-65
2021/06/23 13:18:58;;;;;;;;;;;26.50;77.20;;;;;;5024037;28;20945;-64
2021/06/23 13:21:24;;;;;;;;;;;25.90;80.20;;;;;;5031798;28;19976;-66
2021/06/23 13:23:51;;;;;;;;;;;25.80;85.20;;;;;;5029401;28;20008;-65
2021/06/23 13:26:18;;;;;;;;;;;26.90;77.90;;;;;;5029423;28;19968;-67
2021/06/23 13:28:45;;;;;;;;;;;27.90;71.00;;;;;;5025749;28;19959;-65
2021/06/23 13:31:12;;;;;;;;;;;28.20;70.50;;;;;;5061261;28;19964;-65
2021/06/23 13:33:39;;;;;;;;;;;29.00;67.30;;;;;;5027282;28;19928;-66
2021/06/23 13:36:06;;;;;;;;;;;29.50;64.00;;;;;;5032456;28;19972;-65
2021/06/23 13:38:33;;;;;;;;;;;28.40;64.80;;;;;;5029751;28;19931;-66
2021/06/23 13:41:00;;;;;;;;;;;28.70;64.90;;;;;;5031246;28;19929;-65
2021/06/23 13:43:27;;;;;;;;;;;29.00;63.50;;;;;;5022737;28;19929;-72
2021/06/23 13:45:54;;;;;;;;;;;29.30;62.60;;;;;;5029303;28;20435;-71
2021/06/23 13:48:21;;;;;;;;;;;29.30;63.00;;;;;;5028013;28;20012;-72
2021/06/23 13:50:48;;;;;;;;;;;28.90;62.50;;;;;;5031167;28;19975;-72
2021/06/23 13:53:15;;;;;;;;;;;27.90;65.70;;;;;;5024209;28;19926;-71
2021/06/23 13:55:42;;;;;;;;;;;27.70;68.10;;;;;;5019721;28;20016;-70
2021/06/23 13:58:11;;;;;;;;;;;27.30;70.00;;;;;;5031087;28;19932;-70
2021/06/23 14:00:39;;;;;;;;;;;27.30;68.40;;;;;;5027777;28;19926;-71
2021/06/23 14:03:06;;;;;;;;;;;26.90;69.90;;;;;;5027100;28;20018;-70
2021/06/23 14:05:33;;;;;;;;;;;26.70;73.70;;;;;;5026813;28;19967;-71
2021/06/23 14:08:01;;;;;;;;;;;26.80;75.50;;;;;;5027607;28;19967;-71
2021/06/23 14:10:28;;;;;;;;;;;26.60;76.50;;;;;;5029968;28;20013;-71
2021/06/23 14:12:55;;;;;;;;;;;25.90;82.30;;;;;;5028444;28;20377;-71
2021/06/23 14:15:22;;;;;;;;;;;25.60;86.80;;;;;;5027673;28;19979;-71
2021/06/23 14:17:55;;;;;;;;;;;25.40;90.00;;;;;;5017311;28;20003;-71
2021/06/23 14:20:22;;;;;;;;;;;25.40;90.30;;;;;;5024455;28;20527;-71
2021/06/23 14:22:49;;;;;;;;;;;25.40;90.70;;;;;;5026991;28;20331;-70
2021/06/23 14:25:16;;;;;;;;;;;25.40;90.60;;;;;;5030482;28;20430;-70
2021/06/23 14:27:44;;;;;;;;;;;25.20;91.10;;;;;;5025737;28;20069;-70
2021/06/23 14:30:12;;;;;;;;;;;25.40;91.00;;;;;;5028006;28;19976;-69
2021/06/23 14:32:43;;;;;;;;;;;25.60;88.30;;;;;;5015234;28;19979;-71
2021/06/23 14:35:10;;;;;;;;;;;25.60;88.10;;;;;;5028379;28;20132;-71
2021/06/23 14:37:37;;;;;;;;;;;25.60;88.00;;;;;;5029240;28;19936;-71
2021/06/23 14:40:05;;;;;;;;;;;25.60;88.00;;;;;;5015872;28;20007;-71
2021/06/23 14:42:32;;;;;;;;;;;25.50;87.80;;;;;;5024412;28;20364;-72
2021/06/23 14:44:59;;;;;;;;;;;25.70;88.30;;;;;;5028706;28;19972;-71
2021/06/23 14:47:25;;;;;;;;;;;25.80;87.60;;;;;;5015031;28;19925;-71
2021/06/23 14:49:52;;;;;;;;;;;25.90;86.00;;;;;;5027075;28;19925;-71